Ashland, Nebraska
Current Conditions -  °F | °C
As of 8:55 PM on Thursday 27 Nov 2014 (Local Time) from KMLE Reporting Station
Clear Clear  
Wind Chill: 15°   Ceiling: Unl
Heat Index: 24°   Visibility: 10mi
Dew Point: 16°   Wind: 7mph
Humidity: 72%   Direction: 130°SE
Pressure: 30.21"   Gusts: NA
Location:  41.04°N, 96.37°W
Report Text: KMLE 280255Z AUTO 13006KT 10SM CLR M05/M09 A3021 RMK AO2 T10471090
Loading
Personal Weather Stations






























Interactive Weather Map New forecast layout! Learn more

10-Day Weather Forecast

Advertisements
Track Severe Weather on mobile